createdAt,value
2018-06-10T00:00:41.636Z,20.80
2018-06-10T00:03:10.950Z,20.70
2018-06-10T00:05:40.214Z,20.70
2018-06-10T00:08:09.545Z,20.70
2018-06-10T00:10:38.813Z,20.60
2018-06-10T00:13:08.164Z,20.50
2018-06-10T00:15:37.527Z,20.50
2018-06-10T00:18:06.805Z,20.50
2018-06-10T00:20:36.047Z,20.40
2018-06-10T00:23:05.383Z,20.40
2018-06-10T00:25:34.709Z,20.30
2018-06-10T00:28:04.032Z,20.30
2018-06-10T00:30:33.365Z,20.30
2018-06-10T00:33:02.650Z,20.20
2018-06-10T00:35:31.931Z,20.20
2018-06-10T00:38:01.183Z,20.20
2018-06-10T00:40:30.442Z,20.10
2018-06-10T00:42:59.799Z,20.10
2018-06-10T00:45:29.073Z,20.10
2018-06-10T00:47:58.420Z,20.00
2018-06-10T00:50:27.851Z,20.00
2018-06-10T00:55:26.004Z,20.00
2018-06-10T00:57:55.272Z,19.90
2018-06-10T01:00:24.570Z,19.90
2018-06-10T01:02:53.881Z,19.90
2018-06-10T01:05:23.185Z,19.80
2018-06-10T01:07:52.513Z,19.80
2018-06-10T01:10:21.735Z,19.80
2018-06-10T01:12:51.066Z,19.80
2018-06-10T01:17:49.237Z,19.70
2018-06-10T01:20:18.485Z,19.70
2018-06-10T01:22:47.769Z,19.60
2018-06-10T01:25:17.021Z,19.60
2018-06-10T01:27:46.256Z,19.60
2018-06-10T01:30:15.466Z,19.60
2018-06-10T01:32:44.764Z,19.50
2018-06-10T01:35:13.988Z,19.50
2018-06-10T01:37:43.284Z,19.40
2018-06-10T01:40:12.552Z,19.40
2018-06-10T01:42:41.773Z,19.40
2018-06-10T01:45:11.053Z,19.40
2018-06-10T01:47:40.322Z,19.40
2018-06-10T01:52:38.450Z,19.40
2018-06-10T01:55:07.775Z,19.30
2018-06-10T01:57:36.982Z,19.30
2018-06-10T02:00:06.308Z,19.30
2018-06-10T02:02:35.583Z,19.30
2018-06-10T02:05:04.944Z,19.30
2018-06-10T02:07:34.265Z,19.30
2018-06-10T02:10:03.578Z,19.20
2018-06-10T02:12:33.128Z,19.20
2018-06-10T02:15:02.473Z,19.20
2018-06-10T02:17:31.788Z,19.20
2018-06-10T02:20:01.046Z,19.20
2018-06-10T02:22:30.379Z,19.20
2018-06-10T02:24:59.724Z,19.20
2018-06-10T02:27:29.019Z,19.20
2018-06-10T02:29:58.276Z,19.20
2018-06-10T02:32:27.548Z,19.20
2018-06-10T02:34:56.888Z,19.20
2018-06-10T02:37:26.307Z,19.10
2018-06-10T02:39:55.627Z,19.10
2018-06-10T02:42:24.947Z,19.10
2018-06-10T02:44:54.297Z,19.10
2018-06-10T02:47:23.612Z,19.10
2018-06-10T02:49:52.919Z,19.20
2018-06-10T02:52:22.248Z,19.20
2018-06-10T02:54:51.703Z,19.20
2018-06-10T02:57:20.979Z,19.10
2018-06-10T02:59:50.270Z,19.20
2018-06-10T03:02:19.538Z,19.20
2018-06-10T03:04:48.785Z,19.20
2018-06-10T03:07:18.159Z,19.10
2018-06-10T03:09:47.524Z,19.10
2018-06-10T03:12:16.784Z,19.10
2018-06-10T03:14:46.152Z,19.10
2018-06-10T03:17:15.489Z,19.10
2018-06-10T03:19:44.788Z,19.10
2018-06-10T03:22:14.116Z,19.00
2018-06-10T03:24:43.396Z,19.00
2018-06-10T03:27:12.751Z,19.00
2018-06-10T03:29:42.535Z,19.10
2018-06-10T03:32:11.820Z,19.00
2018-06-10T03:34:41.137Z,19.00
2018-06-10T03:37:10.469Z,19.00
2018-06-10T03:39:39.803Z,19.00
2018-06-10T03:42:09.177Z,19.00
2018-06-10T03:44:38.542Z,19.00
2018-06-10T03:47:07.907Z,19.00
2018-06-10T03:49:37.175Z,19.00
2018-06-10T03:52:06.464Z,19.00
2018-06-10T03:54:35.740Z,19.00
2018-06-10T03:57:05.140Z,19.00
2018-06-10T03:59:34.395Z,19.10
2018-06-10T04:02:03.747Z,19.10
2018-06-10T04:04:33.144Z,19.10
2018-06-10T04:07:02.531Z,19.20
2018-06-10T04:09:31.806Z,19.20
2018-06-10T04:12:01.180Z,19.20
2018-06-10T04:14:30.587Z,19.30
2018-06-10T04:16:59.894Z,19.30
2018-06-10T04:19:29.264Z,19.30
2018-06-10T04:21:58.728Z,19.40
2018-06-10T04:24:28.224Z,19.50
2018-06-10T04:26:57.472Z,19.60
2018-06-10T04:29:26.903Z,19.70
2018-06-10T04:31:56.232Z,19.80
2018-06-10T04:34:25.545Z,19.90
2018-06-10T04:36:54.904Z,20.00
2018-06-10T04:39:24.390Z,20.00
2018-06-10T04:41:53.683Z,20.10
2018-06-10T04:44:23.065Z,20.20
2018-06-10T04:46:52.425Z,20.20
2018-06-10T04:49:21.820Z,20.20
2018-06-10T04:51:51.135Z,20.30
2018-06-10T04:54:20.531Z,20.40
2018-06-10T04:59:18.899Z,20.70
2018-06-10T05:01:48.194Z,20.90
2018-06-10T05:04:17.545Z,21.10
2018-06-10T05:09:15.769Z,21.60
2018-06-10T05:11:45.059Z,21.80
2018-06-10T05:14:14.333Z,21.90
2018-06-10T05:16:43.646Z,22.10
2018-06-10T05:19:12.992Z,22.40
2018-06-10T05:21:42.281Z,22.60
2018-06-10T05:26:41.353Z,23.40
2018-06-10T05:29:10.674Z,23.80
2018-06-10T05:31:39.941Z,24.20
2018-06-10T05:34:09.282Z,24.50
2018-06-10T05:39:08.793Z,24.90
2018-06-10T05:41:38.098Z,25.10
2018-06-10T05:44:07.430Z,25.10
2018-06-10T05:46:36.823Z,25.30
2018-06-10T05:49:06.124Z,25.50
2018-06-10T05:51:35.505Z,25.70
2018-06-10T05:54:04.851Z,26.10
2018-06-10T05:56:34.176Z,26.60
2018-06-10T05:59:03.568Z,27.00
2018-06-10T06:01:32.909Z,27.50
2018-06-10T06:04:02.197Z,28.00
2018-06-10T06:06:31.476Z,28.50
2018-06-10T06:09:00.907Z,29.00
2018-06-10T06:11:30.193Z,29.30
2018-06-10T06:13:59.518Z,29.70
2018-06-10T06:16:33.186Z,30.10
2018-06-10T06:19:03.700Z,30.50
2018-06-10T06:21:33.484Z,30.90
2018-06-10T06:24:02.883Z,31.20
2018-06-10T06:26:32.251Z,31.20
2018-06-10T06:29:01.530Z,31.40
2018-06-10T06:31:30.838Z,31.40
2018-06-10T06:34:00.194Z,31.40
2018-06-10T06:36:29.503Z,31.60
2018-06-10T06:38:58.882Z,32.10
2018-06-10T06:41:28.234Z,32.50
2018-06-10T06:43:57.836Z,33.10
2018-06-10T06:46:27.149Z,33.60
2018-06-10T06:48:56.535Z,34.10
2018-06-10T06:53:55.064Z,33.90
2018-06-10T06:56:24.425Z,33.30
2018-06-10T06:58:53.904Z,32.80
2018-06-10T07:01:23.370Z,33.20
2018-06-10T07:03:52.711Z,34.00
2018-06-10T07:06:22.100Z,34.90
2018-06-10T07:08:51.772Z,35.70
2018-06-10T07:11:21.118Z,36.40
2018-06-10T07:13:50.468Z,37.00
2018-06-10T07:16:20.165Z,37.40
2018-06-10T07:18:49.845Z,37.50
2018-06-10T07:21:19.204Z,38.00
2018-06-10T07:23:48.828Z,38.40
2018-06-10T07:26:18.666Z,38.80
2018-06-10T07:28:48.118Z,39.10
2018-06-10T07:31:17.418Z,39.20
2018-06-10T07:33:46.890Z,39.30
2018-06-10T07:36:16.227Z,39.10
2018-06-10T07:38:45.570Z,38.70
2018-06-10T07:41:15.154Z,38.20
2018-06-10T07:43:44.538Z,37.90
2018-06-10T07:46:13.945Z,38.50
2018-06-10T07:48:43.561Z,39.30
2018-06-10T07:51:12.887Z,40.10
2018-06-10T07:53:42.220Z,41.00
2018-06-10T07:58:40.497Z,42.20
2018-06-10T08:01:09.797Z,42.60
2018-06-10T08:03:39.251Z,43.20
2018-06-10T08:06:08.646Z,43.60
2018-06-10T08:08:38.531Z,43.60
2018-06-10T08:11:07.944Z,43.60
2018-06-10T08:13:37.262Z,43.80
2018-06-10T08:16:06.825Z,43.90
2018-06-10T08:18:36.321Z,43.90
2018-06-10T08:21:05.732Z,44.10
2018-06-10T08:23:35.245Z,44.40
2018-06-10T08:26:04.585Z,44.30
2018-06-10T08:28:33.932Z,43.90
2018-06-10T08:31:03.426Z,43.80
2018-06-10T08:33:32.877Z,43.80
2018-06-10T08:36:02.522Z,43.90
2018-06-10T08:38:32.004Z,43.90
2018-06-10T08:41:01.251Z,43.70
2018-06-10T08:43:30.703Z,43.30
2018-06-10T08:46:00.050Z,43.10
2018-06-10T08:48:29.531Z,42.80
2018-06-10T08:50:59.005Z,42.60
2018-06-10T08:53:28.495Z,42.00
2018-06-10T08:55:57.929Z,41.50
2018-06-10T08:58:27.380Z,41.10
2018-06-10T09:00:56.857Z,40.60
2018-06-10T09:03:26.523Z,40.00
2018-06-10T09:05:56.347Z,39.40
2018-06-10T09:08:25.761Z,38.80
2018-06-10T09:10:55.122Z,38.30
2018-06-10T09:13:24.577Z,37.90
2018-06-10T09:15:54.034Z,37.70
2018-06-10T09:18:23.479Z,37.50
2018-06-10T09:20:52.961Z,37.30
2018-06-10T09:23:22.449Z,37.20
2018-06-10T09:25:51.810Z,37.70
2018-06-10T09:28:21.172Z,38.60
2018-06-10T09:30:50.571Z,39.50
2018-06-10T09:33:19.994Z,40.70
2018-06-10T09:35:49.742Z,41.40
2018-06-10T09:38:19.745Z,41.60
2018-06-10T09:40:49.589Z,42.00
2018-06-10T09:43:19.342Z,42.60
2018-06-10T09:45:49.175Z,42.80
2018-06-10T09:48:18.703Z,42.50
2018-06-10T09:50:48.530Z,42.00
2018-06-10T09:53:18.663Z,41.30
2018-06-10T09:55:48.574Z,40.70
2018-06-10T09:58:18.384Z,40.00
2018-06-10T10:00:48.151Z,39.20
2018-06-10T10:03:18.984Z,38.60
2018-06-10T10:05:49.414Z,38.50
2018-06-10T10:08:19.279Z,38.50
2018-06-10T10:10:48.925Z,38.50
2018-06-10T10:13:18.555Z,38.60
2018-06-10T10:15:48.100Z,38.90
2018-06-10T10:18:17.599Z,39.30
2018-06-10T10:20:47.146Z,39.60
2018-06-10T10:23:16.856Z,39.80
2018-06-10T10:25:46.737Z,39.70
2018-06-10T10:28:16.623Z,39.90
2018-06-10T10:30:46.071Z,40.20
2018-06-10T10:33:15.754Z,40.20
2018-06-10T10:35:45.470Z,39.80
2018-06-10T10:38:14.871Z,39.30
2018-06-10T10:40:44.448Z,38.80
2018-06-10T10:43:13.958Z,38.70
2018-06-10T10:45:43.412Z,39.20
2018-06-10T10:53:11.735Z,39.60
2018-06-10T10:55:41.244Z,39.60
2018-06-10T10:58:11.005Z,39.70
2018-06-10T11:00:40.757Z,39.70
2018-06-10T11:03:10.330Z,39.40
2018-06-10T11:05:39.908Z,39.10
2018-06-10T11:08:09.452Z,38.80
2018-06-10T11:10:38.929Z,38.70
2018-06-10T11:13:08.338Z,38.50
2018-06-10T11:15:37.922Z,38.50
2018-06-10T11:18:07.396Z,38.50
2018-06-10T11:20:36.817Z,38.80
2018-06-10T11:23:06.405Z,39.20
2018-06-10T11:25:35.895Z,39.60
2018-06-10T11:28:05.387Z,39.80
2018-06-10T11:30:34.794Z,39.60
2018-06-10T11:33:04.241Z,39.20
2018-06-10T11:35:33.638Z,38.50
2018-06-10T11:38:03.175Z,38.00
2018-06-10T11:40:32.763Z,37.60
2018-06-10T11:43:02.215Z,37.40
2018-06-10T11:45:31.888Z,37.40
2018-06-10T11:48:01.341Z,37.30
2018-06-10T11:50:31.319Z,37.00
2018-06-10T11:53:00.940Z,36.40
2018-06-10T11:55:30.448Z,35.90
2018-06-10T11:58:00.033Z,35.20
2018-06-10T12:00:29.713Z,34.60
2018-06-10T12:02:59.598Z,34.00
2018-06-10T12:05:29.133Z,33.70
2018-06-10T12:07:58.732Z,33.40
2018-06-10T12:12:57.498Z,33.50
2018-06-10T12:15:27.558Z,33.80
2018-06-10T12:17:57.048Z,34.30
2018-06-10T12:20:26.589Z,34.70
2018-06-10T12:22:56.223Z,35.10
2018-06-10T12:25:25.762Z,35.60
2018-06-10T12:27:55.396Z,35.90
2018-06-10T12:30:25.610Z,35.80
2018-06-10T12:32:55.824Z,35.70
2018-06-10T12:35:25.250Z,35.60
2018-06-10T12:37:55.644Z,35.60
2018-06-10T12:40:27.449Z,35.60
2018-06-10T12:42:57.184Z,35.60
2018-06-10T12:45:26.529Z,35.50
2018-06-10T12:47:57.181Z,35.40
2018-06-10T12:50:27.478Z,35.10
2018-06-10T12:52:57.425Z,34.70
2018-06-10T12:55:28.908Z,34.40
2018-06-10T12:57:58.943Z,34.10
2018-06-10T13:00:30.026Z,33.90
2018-06-10T13:02:59.477Z,33.70
2018-06-10T13:05:29.632Z,33.50
2018-06-10T13:10:28.187Z,32.90
2018-06-10T13:12:57.813Z,32.80
2018-06-10T13:15:27.428Z,32.80
2018-06-10T13:18:02.243Z,32.90
2018-06-10T13:20:31.875Z,32.90
2018-06-10T13:23:01.191Z,32.90
2018-06-10T13:25:30.583Z,32.90
2018-06-10T13:28:00.030Z,33.00
2018-06-10T13:30:29.479Z,33.20
2018-06-10T13:32:58.814Z,33.40
2018-06-10T13:35:28.521Z,33.60
2018-06-10T13:37:58.101Z,33.70
2018-06-10T13:40:27.412Z,33.80
2018-06-10T13:42:57.051Z,34.10
2018-06-10T13:45:27.718Z,34.40
2018-06-10T13:47:58.042Z,34.60
2018-06-10T13:50:29.845Z,34.80
2018-06-10T13:53:02.193Z,34.80
2018-06-10T13:55:34.131Z,34.80
2018-06-10T13:58:03.821Z,35.00
2018-06-10T14:00:33.552Z,35.20
2018-06-10T14:03:08.527Z,35.40
2018-06-10T14:05:38.200Z,35.50
2018-06-10T14:08:08.409Z,35.70
2018-06-10T14:10:40.902Z,35.80
2018-06-10T14:13:15.230Z,35.90
2018-06-10T14:15:45.984Z,35.90
2018-06-10T14:20:45.442Z,35.30
2018-06-10T14:23:16.268Z,35.20
2018-06-10T14:25:45.778Z,35.70
2018-06-10T14:28:16.719Z,36.60
2018-06-10T14:33:15.795Z,37.40
2018-06-10T14:35:46.884Z,37.10
2018-06-10T14:38:16.847Z,36.50
2018-06-10T14:40:46.972Z,36.10
2018-06-10T14:43:16.616Z,35.90
2018-06-10T14:45:46.707Z,35.50
2018-06-10T14:48:17.086Z,34.90
2018-06-10T14:50:48.777Z,34.30
2018-06-10T14:53:18.570Z,33.70
2018-06-10T14:55:48.621Z,33.00
2018-06-10T14:58:18.037Z,32.40
2018-06-10T15:00:47.372Z,31.80
2018-06-10T15:03:17.936Z,31.30
2018-06-10T15:05:47.313Z,30.80
2018-06-10T15:08:17.091Z,30.40
2018-06-10T15:10:46.376Z,30.10
2018-06-10T15:13:16.311Z,29.80
2018-06-10T15:15:46.166Z,29.50
2018-06-10T15:18:16.093Z,29.20
2018-06-10T15:20:45.843Z,28.90
2018-06-10T15:23:18.620Z,28.60
2018-06-10T15:25:48.493Z,28.30
2018-06-10T15:28:18.346Z,28.00
2018-06-10T15:30:47.774Z,27.70
2018-06-10T15:33:17.189Z,27.40
2018-06-10T15:35:48.396Z,27.20
2018-06-10T15:38:17.970Z,27.00
2018-06-10T15:40:47.413Z,26.80
2018-06-10T15:45:45.813Z,26.40
2018-06-10T15:48:15.172Z,26.10
2018-06-10T15:50:44.544Z,25.70
2018-06-10T15:53:14.003Z,25.30
2018-06-10T15:55:43.656Z,24.90
2018-06-10T15:58:13.596Z,24.50
2018-06-10T16:00:43.203Z,24.30
2018-06-10T16:03:14.346Z,24.20
2018-06-10T16:05:50.561Z,24.00
2018-06-10T16:08:21.219Z,23.90
2018-06-10T16:10:50.812Z,23.80
2018-06-10T16:13:20.297Z,23.70
2018-06-10T16:15:49.642Z,23.50
2018-06-10T16:18:19.199Z,23.20
2018-06-10T16:20:48.839Z,23.10
2018-06-10T16:23:18.355Z,23.00
2018-06-10T16:25:47.699Z,23.00
2018-06-10T16:28:17.099Z,23.00
2018-06-10T16:30:46.705Z,23.10
2018-06-10T16:33:16.088Z,23.20
2018-06-10T16:35:45.846Z,23.20
2018-06-10T16:38:15.982Z,23.30
2018-06-10T16:40:45.388Z,23.40
2018-06-10T16:43:14.848Z,23.50
2018-06-10T16:45:44.380Z,23.70
2018-06-10T16:48:13.693Z,23.90
2018-06-10T16:50:43.176Z,24.00
2018-06-10T16:53:12.974Z,24.20
2018-06-10T16:55:42.856Z,24.30
2018-06-10T16:58:12.415Z,24.40
2018-06-10T17:00:42.608Z,24.50
2018-06-10T17:03:13.588Z,24.60
2018-06-10T17:05:43.977Z,24.70
2018-06-10T17:08:14.073Z,24.80
2018-06-10T17:10:44.248Z,24.90
2018-06-10T17:13:14.122Z,25.00
2018-06-10T17:15:44.477Z,25.10
2018-06-10T17:18:14.682Z,25.20
2018-06-10T17:20:44.229Z,25.30
2018-06-10T17:23:14.343Z,25.30
2018-06-10T17:25:45.654Z,25.30
2018-06-10T17:28:16.109Z,25.30
2018-06-10T17:30:47.464Z,25.20
2018-06-10T17:33:17.609Z,25.00
2018-06-10T17:35:47.901Z,24.80
2018-06-10T17:38:17.611Z,24.70
2018-06-10T17:40:46.995Z,24.60
2018-06-10T17:43:17.014Z,24.40
2018-06-10T17:45:49.268Z,24.40
2018-06-10T17:48:19.641Z,24.30
2018-06-10T17:50:49.685Z,24.20
2018-06-10T17:53:21.731Z,24.20
2018-06-10T17:55:54.320Z,24.10
2018-06-10T17:58:26.086Z,24.10
2018-06-10T18:00:57.169Z,24.00
2018-06-10T18:03:27.481Z,24.00
2018-06-10T18:05:58.101Z,23.90
2018-06-10T18:08:30.526Z,23.90
2018-06-10T18:11:01.025Z,23.80
2018-06-10T18:13:33.053Z,23.70
2018-06-10T18:16:04.991Z,23.70
2018-06-10T18:18:35.185Z,23.60
2018-06-10T18:21:08.148Z,23.60
2018-06-10T18:23:38.383Z,23.50
2018-06-10T18:26:10.594Z,23.40
2018-06-10T18:28:41.286Z,23.30
2018-06-10T18:31:13.254Z,23.30
2018-06-10T18:33:43.399Z,23.20
2018-06-10T18:36:14.820Z,23.10
2018-06-10T18:38:46.324Z,23.10
2018-06-10T18:41:20.487Z,23.10
2018-06-10T18:43:54.771Z,23.00
2018-06-10T18:46:25.717Z,23.00
2018-06-10T18:48:56.897Z,22.90
2018-06-10T18:51:28.423Z,22.90
2018-06-10T18:54:01.117Z,22.80
2018-06-10T18:56:34.770Z,22.70
2018-06-10T18:59:12.517Z,22.70
2018-06-10T19:01:47.207Z,22.60
2018-06-10T19:04:19.161Z,22.60
2018-06-10T19:06:49.410Z,22.50
2018-06-10T19:09:19.326Z,22.40
2018-06-10T19:11:49.884Z,22.40
2018-06-10T19:14:20.401Z,22.40
2018-06-10T19:16:50.160Z,22.30
2018-06-10T19:19:21.032Z,22.30
2018-06-10T19:21:50.811Z,22.20
2018-06-10T19:24:21.257Z,22.20
2018-06-10T19:26:51.406Z,22.20
2018-06-10T19:29:21.682Z,22.20
2018-06-10T19:31:51.799Z,22.10
2018-06-10T19:34:21.563Z,22.10
2018-06-10T19:36:52.695Z,22.10
2018-06-10T19:39:23.798Z,22.00
2018-06-10T19:41:55.289Z,22.00
2018-06-10T19:44:25.493Z,21.90
2018-06-10T19:46:55.711Z,22.00
2018-06-10T19:49:25.889Z,21.90
2018-06-10T19:51:56.452Z,21.90
2018-06-10T19:54:26.933Z,21.90
2018-06-10T19:56:57.383Z,21.80
2018-06-10T19:59:28.384Z,21.80
2018-06-10T20:01:58.518Z,21.80
2018-06-10T20:04:28.902Z,21.70
2018-06-10T20:06:58.670Z,21.70
2018-06-10T20:09:31.310Z,21.60
2018-06-10T20:12:00.836Z,21.60
2018-06-10T20:14:31.361Z,21.50
2018-06-10T20:17:01.961Z,21.50
2018-06-10T20:19:32.422Z,21.40
2018-06-10T20:22:03.731Z,21.30
2018-06-10T20:24:39.089Z,21.20
2018-06-10T20:27:09.336Z,21.10
2018-06-10T20:29:39.682Z,21.00
2018-06-10T20:32:10.116Z,20.90
2018-06-10T20:34:40.179Z,20.80
2018-06-10T20:37:10.619Z,20.70
2018-06-10T20:39:40.787Z,20.60
2018-06-10T20:42:11.449Z,20.50
2018-06-10T20:44:41.819Z,20.40
2018-06-10T20:47:11.817Z,20.40
2018-06-10T20:49:41.272Z,20.30
2018-06-10T20:52:10.840Z,20.20
2018-06-10T20:54:40.213Z,20.20
2018-06-10T20:57:09.634Z,20.10
2018-06-10T20:59:38.952Z,20.00
2018-06-10T21:02:08.426Z,20.00
2018-06-10T21:04:37.858Z,19.90
2018-06-10T21:07:07.251Z,19.80
2018-06-10T21:09:36.796Z,19.80
2018-06-10T21:12:06.226Z,19.70
2018-06-10T21:17:04.617Z,19.60
2018-06-10T21:19:34.038Z,19.50
2018-06-10T21:22:03.423Z,19.50
2018-06-10T21:24:32.776Z,19.50
2018-06-10T21:27:02.135Z,19.40
2018-06-10T21:29:31.580Z,19.40
2018-06-10T21:32:01.133Z,19.40
2018-06-10T21:34:30.540Z,19.30
2018-06-10T21:36:59.947Z,19.30
2018-06-10T21:39:29.372Z,19.30
2018-06-10T21:41:58.843Z,19.30
2018-06-10T21:44:28.216Z,19.30
2018-06-10T21:49:26.510Z,19.20
2018-06-10T21:51:55.907Z,19.20
2018-06-10T21:54:25.209Z,19.10
2018-06-10T21:56:54.528Z,19.00
2018-06-10T21:59:23.854Z,19.00
2018-06-10T22:01:53.312Z,19.00
2018-06-10T22:04:29.091Z,18.90
2018-06-10T22:06:58.479Z,18.80
2018-06-10T22:09:27.826Z,18.80
2018-06-10T22:11:57.223Z,18.80
2018-06-10T22:14:26.531Z,18.70
2018-06-10T22:16:55.903Z,18.70
2018-06-10T22:19:25.252Z,18.60
2018-06-10T22:21:54.659Z,18.60
2018-06-10T22:24:24.027Z,18.50
2018-06-10T22:26:53.387Z,18.50
2018-06-10T22:29:22.731Z,18.50
2018-06-10T22:31:52.169Z,18.40
2018-06-10T22:34:21.391Z,18.40
2018-06-10T22:36:50.737Z,18.30
2018-06-10T22:39:19.982Z,18.30
2018-06-10T22:41:49.272Z,18.20
2018-06-10T22:44:18.601Z,18.20
2018-06-10T22:46:47.982Z,18.20
2018-06-10T22:49:17.317Z,18.10
2018-06-10T22:51:46.625Z,18.10
2018-06-10T22:54:46.637Z,18.00
2018-06-10T22:57:15.942Z,18.00
2018-06-10T22:59:45.463Z,17.90
2018-06-10T23:02:14.722Z,17.90
2018-06-10T23:04:44.031Z,17.80
2018-06-10T23:07:13.387Z,17.80
2018-06-10T23:09:42.661Z,17.70
2018-06-10T23:12:12.969Z,17.70
2018-06-10T23:14:42.292Z,17.70
2018-06-10T23:17:11.576Z,17.60
2018-06-10T23:19:41.193Z,17.60
2018-06-10T23:22:10.439Z,17.50
2018-06-10T23:24:39.767Z,17.50
2018-06-10T23:27:09.075Z,17.50
2018-06-10T23:29:38.425Z,17.40
2018-06-10T23:32:07.863Z,17.40
2018-06-10T23:34:37.209Z,17.40
2018-06-10T23:37:06.495Z,17.30
2018-06-10T23:39:35.813Z,17.30
2018-06-10T23:42:05.162Z,17.30
2018-06-10T23:44:34.583Z,17.20
2018-06-10T23:47:04.156Z,17.20
2018-06-10T23:49:33.507Z,17.20
2018-06-10T23:52:02.778Z,17.20
2018-06-10T23:54:32.141Z,17.10
2018-06-10T23:57:01.534Z,17.10
2018-06-10T23:59:30.884Z,17.00
